sensor_id;sensor_type;location;lat;lon;timestamp;P1;durP1;ratioP1;P2;durP2;ratioP2
422;SDS011;198;48.752;9.180;2022-09-12T00:02:13;15.00;;;7.80;;
422;SDS011;198;48.752;9.180;2022-09-12T00:04:39;16.73;;;8.17;;
422;SDS011;198;48.752;9.180;2022-09-12T00:07:04;13.00;;;7.40;;
422;SDS011;198;48.752;9.180;2022-09-12T00:09:30;11.70;;;6.37;;
422;SDS011;198;48.752;9.180;2022-09-12T00:11:55;16.03;;;6.60;;
422;SDS011;198;48.752;9.180;2022-09-12T00:14:21;13.37;;;7.53;;
422;SDS011;198;48.752;9.180;2022-09-12T00:16:46;13.40;;;7.70;;
422;SDS011;198;48.752;9.180;2022-09-12T00:19:12;15.27;;;8.23;;
422;SDS011;198;48.752;9.180;2022-09-12T00:21:38;17.00;;;8.10;;
422;SDS011;198;48.752;9.180;2022-09-12T00:24:04;14.40;;;7.20;;
422;SDS011;198;48.752;9.180;2022-09-12T00:26:31;15.20;;;8.37;;
422;SDS011;198;48.752;9.180;2022-09-12T00:28:57;12.00;;;6.80;;
422;SDS011;198;48.752;9.180;2022-09-12T00:31:23;12.93;;;8.37;;
422;SDS011;198;48.752;9.180;2022-09-12T00:33:50;13.33;;;7.93;;
422;SDS011;198;48.752;9.180;2022-09-12T00:36:18;17.37;;;7.97;;
422;SDS011;198;48.752;9.180;2022-09-12T00:38:45;14.90;;;8.93;;
422;SDS011;198;48.752;9.180;2022-09-12T00:41:14;12.87;;;8.20;;
422;SDS011;198;48.752;9.180;2022-09-12T00:43:49;13.83;;;7.20;;
422;SDS011;198;48.752;9.180;2022-09-12T00:48:53;14.80;;;9.00;;
422;SDS011;198;48.752;9.180;2022-09-12T00:51:25;17.70;;;9.47;;
422;SDS011;198;48.752;9.180;2022-09-12T00:53:54;14.23;;;8.70;;
422;SDS011;198;48.752;9.180;2022-09-12T00:56:21;21.73;;;11.07;;
422;SDS011;198;48.752;9.180;2022-09-12T00:58:59;17.17;;;9.10;;
422;SDS011;198;48.752;9.180;2022-09-12T01:01:30;20.27;;;9.20;;
422;SDS011;198;48.752;9.180;2022-09-12T01:03:56;17.43;;;9.53;;
422;SDS011;198;48.752;9.180;2022-09-12T01:06:25;16.43;;;8.53;;
422;SDS011;198;48.752;9.180;2022-09-12T01:08:54;19.07;;;8.67;;
422;SDS011;198;48.752;9.180;2022-09-12T01:11:20;12.83;;;7.00;;
422;SDS011;198;48.752;9.180;2022-09-12T01:13:47;11.60;;;7.10;;
422;SDS011;198;48.752;9.180;2022-09-12T01:16:14;14.47;;;8.17;;
422;SDS011;198;48.752;9.180;2022-09-12T01:18:46;11.93;;;7.37;;
422;SDS011;198;48.752;9.180;2022-09-12T01:27:13;14.37;;;7.63;;
422;SDS011;198;48.752;9.180;2022-09-12T01:30:03;14.10;;;7.80;;
422;SDS011;198;48.752;9.180;2022-09-12T01:35:50;16.47;;;8.40;;
422;SDS011;198;48.752;9.180;2022-09-12T01:38:37;18.10;;;10.33;;
422;SDS011;198;48.752;9.180;2022-09-12T01:41:23;23.10;;;10.13;;
422;SDS011;198;48.752;9.180;2022-09-12T01:43:58;21.80;;;10.40;;
422;SDS011;198;48.752;9.180;2022-09-12T01:46:31;25.40;;;11.30;;
422;SDS011;198;48.752;9.180;2022-09-12T01:49:01;20.23;;;10.83;;
422;SDS011;198;48.752;9.180;2022-09-12T01:51:43;21.67;;;11.37;;
422;SDS011;198;48.752;9.180;2022-09-12T01:54:18;16.00;;;9.17;;
422;SDS011;198;48.752;9.180;2022-09-12T01:56:50;21.10;;;10.27;;
422;SDS011;198;48.752;9.180;2022-09-12T01:59:24;20.37;;;10.87;;
422;SDS011;198;48.752;9.180;2022-09-12T02:02:15;21.97;;;11.43;;
422;SDS011;198;48.752;9.180;2022-09-12T02:04:50;25.37;;;11.90;;
422;SDS011;198;48.752;9.180;2022-09-12T02:07:22;25.43;;;11.73;;
422;SDS011;198;48.752;9.180;2022-09-12T02:09:54;23.73;;;11.67;;
422;SDS011;198;48.752;9.180;2022-09-12T02:12:25;25.83;;;12.17;;
422;SDS011;198;48.752;9.180;2022-09-12T02:15:01;28.83;;;12.87;;
422;SDS011;198;48.752;9.180;2022-09-12T02:17:29;24.20;;;10.33;;
422;SDS011;198;48.752;9.180;2022-09-12T02:20:08;25.43;;;12.33;;
422;SDS011;198;48.752;9.180;2022-09-12T02:22:43;27.83;;;11.27;;
422;SDS011;198;48.752;9.180;2022-09-12T02:25:10;23.03;;;11.33;;
422;SDS011;198;48.752;9.180;2022-09-12T02:27:49;23.37;;;11.70;;
422;SDS011;198;48.752;9.180;2022-09-12T02:30:17;18.57;;;9.83;;
422;SDS011;198;48.752;9.180;2022-09-12T02:35:38;21.60;;;10.33;;
422;SDS011;198;48.752;9.180;2022-09-12T02:38:19;20.90;;;9.30;;
422;SDS011;198;48.752;9.180;2022-09-12T02:40:50;20.87;;;10.00;;
422;SDS011;198;48.752;9.180;2022-09-12T02:43:16;16.60;;;9.40;;
422;SDS011;198;48.752;9.180;2022-09-12T02:45:42;22.80;;;10.40;;
422;SDS011;198;48.752;9.180;2022-09-12T02:48:09;21.00;;;10.40;;
422;SDS011;198;48.752;9.180;2022-09-12T02:50:35;18.90;;;9.27;;
422;SDS011;198;48.752;9.180;2022-09-12T02:53:01;18.10;;;9.20;;
422;SDS011;198;48.752;9.180;2022-09-12T02:55:30;20.17;;;9.27;;
422;SDS011;198;48.752;9.180;2022-09-12T02:57:57;22.33;;;11.87;;
422;SDS011;198;48.752;9.180;2022-09-12T03:00:24;21.03;;;8.80;;
422;SDS011;198;48.752;9.180;2022-09-12T03:06:08;23.10;;;10.93;;
422;SDS011;198;48.752;9.180;2022-09-12T03:11:04;15.13;;;8.97;;
422;SDS011;198;48.752;9.180;2022-09-12T03:19:12;23.30;;;10.37;;
422;SDS011;198;48.752;9.180;2022-09-12T03:21:55;16.50;;;9.20;;
422;SDS011;198;48.752;9.180;2022-09-12T03:24:36;18.47;;;10.50;;
422;SDS011;198;48.752;9.180;2022-09-12T03:29:39;16.13;;;8.50;;
422;SDS011;198;48.752;9.180;2022-09-12T03:32:07;19.20;;;9.83;;
422;SDS011;198;48.752;9.180;2022-09-12T03:34:32;17.67;;;9.47;;
422;SDS011;198;48.752;9.180;2022-09-12T03:36:58;21.67;;;11.63;;
422;SDS011;198;48.752;9.180;2022-09-12T03:39:24;19.67;;;10.50;;
422;SDS011;198;48.752;9.180;2022-09-12T03:41:52;20.67;;;9.80;;
422;SDS011;198;48.752;9.180;2022-09-12T03:44:18;17.93;;;10.03;;
422;SDS011;198;48.752;9.180;2022-09-12T03:46:44;20.57;;;9.73;;
422;SDS011;198;48.752;9.180;2022-09-12T03:49:10;19.70;;;8.97;;
422;SDS011;198;48.752;9.180;2022-09-12T03:51:36;17.30;;;9.80;;
422;SDS011;198;48.752;9.180;2022-09-12T03:54:02;16.30;;;8.83;;
422;SDS011;198;48.752;9.180;2022-09-12T03:56:28;16.57;;;8.90;;
422;SDS011;198;48.752;9.180;2022-09-12T03:58:54;16.10;;;8.90;;
422;SDS011;198;48.752;9.180;2022-09-12T04:01:20;18.80;;;10.10;;
422;SDS011;198;48.752;9.180;2022-09-12T04:03:48;17.50;;;7.93;;
422;SDS011;198;48.752;9.180;2022-09-12T04:06:16;14.57;;;8.40;;
422;SDS011;198;48.752;9.180;2022-09-12T04:08:46;15.97;;;8.50;;
422;SDS011;198;48.752;9.180;2022-09-12T04:11:13;16.87;;;9.27;;
422;SDS011;198;48.752;9.180;2022-09-12T04:13:39;13.33;;;7.67;;
422;SDS011;198;48.752;9.180;2022-09-12T04:16:06;18.20;;;7.60;;
422;SDS011;198;48.752;9.180;2022-09-12T04:18:33;17.00;;;8.07;;
422;SDS011;198;48.752;9.180;2022-09-12T04:21:02;13.00;;;7.60;;
422;SDS011;198;48.752;9.180;2022-09-12T04:23:39;11.60;;;7.20;;
422;SDS011;198;48.752;9.180;2022-09-12T04:26:05;14.80;;;8.00;;
422;SDS011;198;48.752;9.180;2022-09-12T04:28:32;18.47;;;8.00;;
422;SDS011;198;48.752;9.180;2022-09-12T04:31:02;13.80;;;8.17;;
422;SDS011;198;48.752;9.180;2022-09-12T04:33:31;16.30;;;7.80;;
422;SDS011;198;48.752;9.180;2022-09-12T04:36:01;15.03;;;8.00;;
422;SDS011;198;48.752;9.180;2022-09-12T04:38:28;15.13;;;7.10;;
422;SDS011;198;48.752;9.180;2022-09-12T04:40:53;16.97;;;8.80;;
422;SDS011;198;48.752;9.180;2022-09-12T04:43:21;14.83;;;7.60;;
422;SDS011;198;48.752;9.180;2022-09-12T04:45:46;13.03;;;7.37;;
422;SDS011;198;48.752;9.180;2022-09-12T04:48:11;12.57;;;7.10;;
422;SDS011;198;48.752;9.180;2022-09-12T04:50:37;13.37;;;6.93;;
422;SDS011;198;48.752;9.180;2022-09-12T04:53:03;11.30;;;7.00;;
422;SDS011;198;48.752;9.180;2022-09-12T04:55:28;15.80;;;9.00;;
422;SDS011;198;48.752;9.180;2022-09-12T04:57:54;16.33;;;6.80;;
422;SDS011;198;48.752;9.180;2022-09-12T05:00:19;15.57;;;8.30;;
422;SDS011;198;48.752;9.180;2022-09-12T05:02:45;12.27;;;7.33;;
422;SDS011;198;48.752;9.180;2022-09-12T05:05:10;12.70;;;7.50;;
422;SDS011;198;48.752;9.180;2022-09-12T05:07:36;13.30;;;7.53;;
422;SDS011;198;48.752;9.180;2022-09-12T05:10:02;12.70;;;7.07;;
422;SDS011;198;48.752;9.180;2022-09-12T05:12:28;11.60;;;6.90;;
422;SDS011;198;48.752;9.180;2022-09-12T05:14:55;14.83;;;7.80;;
422;SDS011;198;48.752;9.180;2022-09-12T05:17:21;13.13;;;7.40;;
422;SDS011;198;48.752;9.180;2022-09-12T05:19:46;12.13;;;6.90;;
422;SDS011;198;48.752;9.180;2022-09-12T05:22:12;13.73;;;7.60;;
422;SDS011;198;48.752;9.180;2022-09-12T05:24:38;13.77;;;7.50;;
422;SDS011;198;48.752;9.180;2022-09-12T05:27:06;16.17;;;7.80;;
422;SDS011;198;48.752;9.180;2022-09-12T05:29:32;10.97;;;6.60;;
422;SDS011;198;48.752;9.180;2022-09-12T05:31:58;16.67;;;8.33;;
422;SDS011;198;48.752;9.180;2022-09-12T05:34:23;9.70;;;5.80;;
422;SDS011;198;48.752;9.180;2022-09-12T05:36:49;13.27;;;7.40;;
422;SDS011;198;48.752;9.180;2022-09-12T05:39:14;10.70;;;6.87;;
422;SDS011;198;48.752;9.180;2022-09-12T05:41:40;18.37;;;9.63;;
422;SDS011;198;48.752;9.180;2022-09-12T05:44:06;13.23;;;8.10;;
422;SDS011;198;48.752;9.180;2022-09-12T05:46:36;18.03;;;8.47;;
422;SDS011;198;48.752;9.180;2022-09-12T05:49:03;11.80;;;7.03;;
422;SDS011;198;48.752;9.180;2022-09-12T05:51:34;14.80;;;8.60;;
422;SDS011;198;48.752;9.180;2022-09-12T05:54:02;16.13;;;8.50;;
422;SDS011;198;48.752;9.180;2022-09-12T05:56:29;16.00;;;9.77;;
422;SDS011;198;48.752;9.180;2022-09-12T05:59:01;23.23;;;11.17;;
422;SDS011;198;48.752;9.180;2022-09-12T06:01:30;22.73;;;9.70;;
422;SDS011;198;48.752;9.180;2022-09-12T06:03:57;21.67;;;10.60;;
422;SDS011;198;48.752;9.180;2022-09-12T06:06:27;19.90;;;11.00;;
422;SDS011;198;48.752;9.180;2022-09-12T06:09:01;23.77;;;12.10;;
422;SDS011;198;48.752;9.180;2022-09-12T06:11:29;21.33;;;11.40;;
422;SDS011;198;48.752;9.180;2022-09-12T06:13:56;23.87;;;10.10;;
422;SDS011;198;48.752;9.180;2022-09-12T06:16:23;25.57;;;11.33;;
422;SDS011;198;48.752;9.180;2022-09-12T06:18:51;30.30;;;11.20;;
422;SDS011;198;48.752;9.180;2022-09-12T06:21:17;20.73;;;11.03;;
422;SDS011;198;48.752;9.180;2022-09-12T06:23:44;20.83;;;10.83;;
422;SDS011;198;48.752;9.180;2022-09-12T06:26:11;21.87;;;10.40;;
422;SDS011;198;48.752;9.180;2022-09-12T06:28:38;19.63;;;9.90;;
422;SDS011;198;48.752;9.180;2022-09-12T06:31:08;17.97;;;9.13;;
422;SDS011;198;48.752;9.180;2022-09-12T06:33:37;18.50;;;10.00;;
422;SDS011;198;48.752;9.180;2022-09-12T06:36:05;16.60;;;9.33;;
422;SDS011;198;48.752;9.180;2022-09-12T06:38:33;20.47;;;9.57;;
422;SDS011;198;48.752;9.180;2022-09-12T06:40:59;15.87;;;8.40;;
422;SDS011;198;48.752;9.180;2022-09-12T06:43:27;14.07;;;8.73;;
422;SDS011;198;48.752;9.180;2022-09-12T06:45:53;15.93;;;8.00;;
422;SDS011;198;48.752;9.180;2022-09-12T06:48:18;13.93;;;8.30;;
422;SDS011;198;48.752;9.180;2022-09-12T06:50:53;14.00;;;7.73;;
422;SDS011;198;48.752;9.180;2022-09-12T06:53:21;13.10;;;7.27;;
422;SDS011;198;48.752;9.180;2022-09-12T06:55:53;14.93;;;8.60;;
422;SDS011;198;48.752;9.180;2022-09-12T06:58:22;14.93;;;7.23;;
422;SDS011;198;48.752;9.180;2022-09-12T07:00:47;15.87;;;7.70;;
422;SDS011;198;48.752;9.180;2022-09-12T07:03:13;14.87;;;8.13;;
422;SDS011;198;48.752;9.180;2022-09-12T07:05:39;14.40;;;8.03;;
422;SDS011;198;48.752;9.180;2022-09-12T07:08:04;14.00;;;7.60;;
422;SDS011;198;48.752;9.180;2022-09-12T07:10:30;13.23;;;7.83;;
422;SDS011;198;48.752;9.180;2022-09-12T07:12:55;10.57;;;6.60;;
422;SDS011;198;48.752;9.180;2022-09-12T07:15:21;18.37;;;7.60;;
422;SDS011;198;48.752;9.180;2022-09-12T07:17:46;15.73;;;6.80;;
422;SDS011;198;48.752;9.180;2022-09-12T07:20:12;15.10;;;7.10;;
422;SDS011;198;48.752;9.180;2022-09-12T07:22:37;14.60;;;7.30;;
422;SDS011;198;48.752;9.180;2022-09-12T07:25:03;11.10;;;6.73;;
422;SDS011;198;48.752;9.180;2022-09-12T07:27:29;11.80;;;7.73;;
422;SDS011;198;48.752;9.180;2022-09-12T07:29:54;14.73;;;7.83;;
422;SDS011;198;48.752;9.180;2022-09-12T07:32:20;11.60;;;5.90;;
422;SDS011;198;48.752;9.180;2022-09-12T07:34:46;13.27;;;5.83;;
422;SDS011;198;48.752;9.180;2022-09-12T07:37:13;8.60;;;5.23;;
422;SDS011;198;48.752;9.180;2022-09-12T07:39:39;10.73;;;6.43;;
422;SDS011;198;48.752;9.180;2022-09-12T07:42:04;10.43;;;6.40;;
422;SDS011;198;48.752;9.180;2022-09-12T07:44:30;8.00;;;5.80;;
422;SDS011;198;48.752;9.180;2022-09-12T07:46:56;13.00;;;6.30;;
422;SDS011;198;48.752;9.180;2022-09-12T07:49:22;9.03;;;5.80;;
422;SDS011;198;48.752;9.180;2022-09-12T07:51:48;9.30;;;5.70;;
422;SDS011;198;48.752;9.180;2022-09-12T07:54:13;8.90;;;4.80;;
422;SDS011;198;48.752;9.180;2022-09-12T07:56:39;13.67;;;5.90;;
422;SDS011;198;48.752;9.180;2022-09-12T07:59:06;10.90;;;4.90;;
422;SDS011;198;48.752;9.180;2022-09-12T08:01:32;12.80;;;5.33;;
422;SDS011;198;48.752;9.180;2022-09-12T08:03:58;6.53;;;4.83;;
422;SDS011;198;48.752;9.180;2022-09-12T08:06:24;8.83;;;4.53;;
422;SDS011;198;48.752;9.180;2022-09-12T08:08:53;9.10;;;4.90;;
422;SDS011;198;48.752;9.180;2022-09-12T08:11:20;9.53;;;6.00;;
422;SDS011;198;48.752;9.180;2022-09-12T08:13:46;7.30;;;4.50;;
422;SDS011;198;48.752;9.180;2022-09-12T08:16:14;6.30;;;4.50;;
422;SDS011;198;48.752;9.180;2022-09-12T08:18:45;11.90;;;3.97;;
422;SDS011;198;48.752;9.180;2022-09-12T08:21:12;6.73;;;3.73;;
422;SDS011;198;48.752;9.180;2022-09-12T08:23:39;6.20;;;3.77;;
422;SDS011;198;48.752;9.180;2022-09-12T08:26:06;4.37;;;3.03;;
422;SDS011;198;48.752;9.180;2022-09-12T08:28:32;3.03;;;2.90;;
422;SDS011;198;48.752;9.180;2022-09-12T08:31:21;3.60;;;3.10;;
422;SDS011;198;48.752;9.180;2022-09-12T08:33:46;5.33;;;3.33;;
422;SDS011;198;48.752;9.180;2022-09-12T08:36:13;3.70;;;3.17;;
422;SDS011;198;48.752;9.180;2022-09-12T08:38:41;6.80;;;3.40;;
422;SDS011;198;48.752;9.180;2022-09-12T08:41:10;5.37;;;3.10;;
422;SDS011;198;48.752;9.180;2022-09-12T08:46:35;3.60;;;2.70;;
422;SDS011;198;48.752;9.180;2022-09-12T08:49:09;3.90;;;3.27;;
422;SDS011;198;48.752;9.180;2022-09-12T08:51:39;3.20;;;2.50;;
422;SDS011;198;48.752;9.180;2022-09-12T08:54:08;2.87;;;2.50;;
422;SDS011;198;48.752;9.180;2022-09-12T08:56:45;4.77;;;2.60;;
422;SDS011;198;48.752;9.180;2022-09-12T08:59:11;3.67;;;2.73;;
422;SDS011;198;48.752;9.180;2022-09-12T09:01:39;3.23;;;2.30;;
422;SDS011;198;48.752;9.180;2022-09-12T09:09:58;4.83;;;2.37;;
422;SDS011;198;48.752;9.180;2022-09-12T09:15:25;1.80;;;1.70;;
422;SDS011;198;48.752;9.180;2022-09-12T09:20:51;2.30;;;2.10;;
422;SDS011;198;48.752;9.180;2022-09-12T09:23:40;1.93;;;1.90;;
422;SDS011;198;48.752;9.180;2022-09-12T09:29:10;1.83;;;1.73;;
422;SDS011;198;48.752;9.180;2022-09-12T09:31:48;2.43;;;1.80;;
422;SDS011;198;48.752;9.180;2022-09-12T09:36:51;2.33;;;1.57;;
422;SDS011;198;48.752;9.180;2022-09-12T09:42:06;3.60;;;1.63;;
422;SDS011;198;48.752;9.180;2022-09-12T09:44:38;1.40;;;1.30;;
422;SDS011;198;48.752;9.180;2022-09-12T09:47:04;8.13;;;1.60;;
422;SDS011;198;48.752;9.180;2022-09-12T09:49:30;2.27;;;1.60;;
422;SDS011;198;48.752;9.180;2022-09-12T09:51:58;3.13;;;1.73;;
422;SDS011;198;48.752;9.180;2022-09-12T09:54:38;2.70;;;1.70;;
422;SDS011;198;48.752;9.180;2022-09-12T10:08:31;1.10;;;1.00;;
422;SDS011;198;48.752;9.180;2022-09-12T10:11:06;1.40;;;1.33;;
422;SDS011;198;48.752;9.180;2022-09-12T10:18:52;3.20;;;1.83;;
422;SDS011;198;48.752;9.180;2022-09-12T10:21:30;1.67;;;1.40;;
422;SDS011;198;48.752;9.180;2022-09-12T10:24:19;2.70;;;1.70;;
422;SDS011;198;48.752;9.180;2022-09-12T10:26:55;1.37;;;1.30;;
422;SDS011;198;48.752;9.180;2022-09-12T10:31:53;1.17;;;1.13;;
422;SDS011;198;48.752;9.180;2022-09-12T10:39:56;1.13;;;1.10;;
422;SDS011;198;48.752;9.180;2022-09-12T10:45:25;3.38;;;1.30;;
422;SDS011;198;48.752;9.180;2022-09-12T10:47:53;1.65;;;1.02;;
422;SDS011;198;48.752;9.180;2022-09-12T10:50:25;1.27;;;1.17;;
422;SDS011;198;48.752;9.180;2022-09-12T10:52:52;1.30;;;1.23;;
422;SDS011;198;48.752;9.180;2022-09-12T10:55:20;1.05;;;0.88;;
422;SDS011;198;48.752;9.180;2022-09-12T10:58:02;1.80;;;1.20;;
422;SDS011;198;48.752;9.180;2022-09-12T11:00:39;1.40;;;1.30;;
422;SDS011;198;48.752;9.180;2022-09-12T11:03:18;1.30;;;1.20;;
422;SDS011;198;48.752;9.180;2022-09-12T11:06:01;1.58;;;1.15;;
422;SDS011;198;48.752;9.180;2022-09-12T11:08:39;1.40;;;1.30;;
422;SDS011;198;48.752;9.180;2022-09-12T11:14:13;1.20;;;1.10;;
422;SDS011;198;48.752;9.180;2022-09-12T11:16:54;4.88;;;1.20;;
422;SDS011;198;48.752;9.180;2022-09-12T11:22:24;1.55;;;1.30;;
422;SDS011;198;48.752;9.180;2022-09-12T11:30:11;1.08;;;0.98;;
422;SDS011;198;48.752;9.180;2022-09-12T11:35:22;1.20;;;1.10;;
422;SDS011;198;48.752;9.180;2022-09-12T11:40:51;1.35;;;1.10;;
422;SDS011;198;48.752;9.180;2022-09-12T11:43:32;1.25;;;1.00;;
422;SDS011;198;48.752;9.180;2022-09-12T11:46:08;1.33;;;0.90;;
422;SDS011;198;48.752;9.180;2022-09-12T12:08:05;0.82;;;0.80;;
422;SDS011;198;48.752;9.180;2022-09-12T12:13:06;1.20;;;1.05;;
422;SDS011;198;48.752;9.180;2022-09-12T12:15:38;0.73;;;0.70;;
422;SDS011;198;48.752;9.180;2022-09-12T12:18:15;1.00;;;0.90;;
422;SDS011;198;48.752;9.180;2022-09-12T12:20:53;0.88;;;0.77;;
422;SDS011;198;48.752;9.180;2022-09-12T12:23:21;0.98;;;0.88;;
422;SDS011;198;48.752;9.180;2022-09-12T12:25:52;1.58;;;0.93;;
422;SDS011;198;48.752;9.180;2022-09-12T12:31:15;0.98;;;0.88;;
422;SDS011;198;48.752;9.180;2022-09-12T12:36:11;1.27;;;1.13;;
422;SDS011;198;48.752;9.180;2022-09-12T12:38:55;2.42;;;0.80;;
422;SDS011;198;48.752;9.180;2022-09-12T12:43:47;1.45;;;1.00;;
422;SDS011;198;48.752;9.180;2022-09-12T12:46:19;0.93;;;0.82;;
422;SDS011;198;48.752;9.180;2022-09-12T12:51:32;1.00;;;0.90;;
422;SDS011;198;48.752;9.180;2022-09-12T12:57:17;0.90;;;0.80;;
422;SDS011;198;48.752;9.180;2022-09-12T13:02:31;1.05;;;0.95;;
422;SDS011;198;48.752;9.180;2022-09-12T13:05:03;1.00;;;0.90;;
422;SDS011;198;48.752;9.180;2022-09-12T13:07:39;0.80;;;0.70;;
422;SDS011;198;48.752;9.180;2022-09-12T13:10:18;0.80;;;0.70;;
422;SDS011;198;48.752;9.180;2022-09-12T13:12:48;0.95;;;0.60;;
422;SDS011;198;48.752;9.180;2022-09-12T13:15:45;0.70;;;0.70;;
422;SDS011;198;48.752;9.180;2022-09-12T13:18:13;2.70;;;0.98;;
422;SDS011;198;48.752;9.180;2022-09-12T13:20:46;0.98;;;0.88;;
422;SDS011;198;48.752;9.180;2022-09-12T13:23:22;0.90;;;0.80;;
422;SDS011;198;48.752;9.180;2022-09-12T13:25:56;0.95;;;0.88;;
422;SDS011;198;48.752;9.180;2022-09-12T13:28:25;0.90;;;0.80;;
422;SDS011;198;48.752;9.180;2022-09-12T13:33:27;1.02;;;0.82;;
422;SDS011;198;48.752;9.180;2022-09-12T13:45:10;0.97;;;0.90;;
422;SDS011;198;48.752;9.180;2022-09-12T13:47:39;1.80;;;1.17;;
422;SDS011;198;48.752;9.180;2022-09-12T13:50:07;1.00;;;0.90;;
422;SDS011;198;48.752;9.180;2022-09-12T13:52:38;1.10;;;1.00;;
422;SDS011;198;48.752;9.180;2022-09-12T13:55:05;1.43;;;1.33;;
422;SDS011;198;48.752;9.180;2022-09-12T13:57:54;1.77;;;1.30;;
422;SDS011;198;48.752;9.180;2022-09-12T14:00:22;1.30;;;1.20;;
422;SDS011;198;48.752;9.180;2022-09-12T14:02:48;1.43;;;1.20;;
422;SDS011;198;48.752;9.180;2022-09-12T14:05:34;1.53;;;1.37;;
422;SDS011;198;48.752;9.180;2022-09-12T14:08:04;1.47;;;1.33;;
422;SDS011;198;48.752;9.180;2022-09-12T14:10:36;3.10;;;1.70;;
422;SDS011;198;48.752;9.180;2022-09-12T14:13:08;1.37;;;1.27;;
422;SDS011;198;48.752;9.180;2022-09-12T14:15:46;2.53;;;1.43;;
422;SDS011;198;48.752;9.180;2022-09-12T14:18:21;1.30;;;1.20;;
422;SDS011;198;48.752;9.180;2022-09-12T14:20:51;1.63;;;1.17;;
422;SDS011;198;48.752;9.180;2022-09-12T14:23:25;1.37;;;1.27;;
422;SDS011;198;48.752;9.180;2022-09-12T14:25:54;2.80;;;1.70;;
422;SDS011;198;48.752;9.180;2022-09-12T14:28:23;1.30;;;1.20;;
422;SDS011;198;48.752;9.180;2022-09-12T14:33:54;6.73;;;1.30;;
422;SDS011;198;48.752;9.180;2022-09-12T14:36:33;5.50;;;1.17;;
422;SDS011;198;48.752;9.180;2022-09-12T14:39:04;1.20;;;1.10;;
422;SDS011;198;48.752;9.180;2022-09-12T14:41:39;1.77;;;1.67;;
422;SDS011;198;48.752;9.180;2022-09-12T14:44:07;1.83;;;1.80;;
422;SDS011;198;48.752;9.180;2022-09-12T14:46:40;3.60;;;1.40;;
422;SDS011;198;48.752;9.180;2022-09-12T14:52:02;1.37;;;1.33;;
422;SDS011;198;48.752;9.180;2022-09-12T14:57:00;2.60;;;1.20;;
422;SDS011;198;48.752;9.180;2022-09-12T14:59:35;1.83;;;1.10;;
422;SDS011;198;48.752;9.180;2022-09-12T15:04:48;2.20;;;1.70;;
422;SDS011;198;48.752;9.180;2022-09-12T15:07:28;2.13;;;1.60;;
422;SDS011;198;48.752;9.180;2022-09-12T15:09:58;2.23;;;1.00;;
422;SDS011;198;48.752;9.180;2022-09-12T15:12:25;1.40;;;1.30;;
422;SDS011;198;48.752;9.180;2022-09-12T15:14:51;1.13;;;1.03;;
422;SDS011;198;48.752;9.180;2022-09-12T15:17:17;1.33;;;1.23;;
422;SDS011;198;48.752;9.180;2022-09-12T15:19:42;2.47;;;1.70;;
422;SDS011;198;48.752;9.180;2022-09-12T15:22:14;3.60;;;1.03;;
422;SDS011;198;48.752;9.180;2022-09-12T15:24:39;1.67;;;1.37;;
422;SDS011;198;48.752;9.180;2022-09-12T15:27:09;1.37;;;1.20;;
422;SDS011;198;48.752;9.180;2022-09-12T15:29:36;2.80;;;1.30;;
422;SDS011;198;48.752;9.180;2022-09-12T15:32:02;1.83;;;1.00;;
422;SDS011;198;48.752;9.180;2022-09-12T15:34:28;1.30;;;1.20;;
422;SDS011;198;48.752;9.180;2022-09-12T15:36:53;1.23;;;1.13;;
422;SDS011;198;48.752;9.180;2022-09-12T15:39:19;1.63;;;0.90;;
422;SDS011;198;48.752;9.180;2022-09-12T15:41:44;2.93;;;1.00;;
422;SDS011;198;48.752;9.180;2022-09-12T15:44:12;1.00;;;0.90;;
422;SDS011;198;48.752;9.180;2022-09-12T15:46:38;1.17;;;1.03;;
422;SDS011;198;48.752;9.180;2022-09-12T15:49:03;2.97;;;1.00;;
422;SDS011;198;48.752;9.180;2022-09-12T15:51:29;1.23;;;1.20;;
422;SDS011;198;48.752;9.180;2022-09-12T15:53:54;1.43;;;1.13;;
422;SDS011;198;48.752;9.180;2022-09-12T15:56:20;1.60;;;1.20;;
422;SDS011;198;48.752;9.180;2022-09-12T15:58:47;1.10;;;1.00;;
422;SDS011;198;48.752;9.180;2022-09-12T16:01:13;1.00;;;0.90;;
422;SDS011;198;48.752;9.180;2022-09-12T16:03:40;1.03;;;0.90;;
422;SDS011;198;48.752;9.180;2022-09-12T16:06:07;2.40;;;1.53;;
422;SDS011;198;48.752;9.180;2022-09-12T16:08:33;2.33;;;1.10;;
422;SDS011;198;48.752;9.180;2022-09-12T16:11:00;3.03;;;1.23;;
422;SDS011;198;48.752;9.180;2022-09-12T16:13:28;1.87;;;1.40;;
422;SDS011;198;48.752;9.180;2022-09-12T16:15:57;1.53;;;1.10;;
422;SDS011;198;48.752;9.180;2022-09-12T16:18:23;6.47;;;1.50;;
422;SDS011;198;48.752;9.180;2022-09-12T16:20:55;2.70;;;1.50;;
422;SDS011;198;48.752;9.180;2022-09-12T16:23:22;1.20;;;1.03;;
422;SDS011;198;48.752;9.180;2022-09-12T16:28:23;1.53;;;1.40;;
422;SDS011;198;48.752;9.180;2022-09-12T16:30:55;1.20;;;1.10;;
422;SDS011;198;48.752;9.180;2022-09-12T16:33:22;2.30;;;1.33;;
422;SDS011;198;48.752;9.180;2022-09-12T16:35:48;3.73;;;1.23;;
422;SDS011;198;48.752;9.180;2022-09-12T16:38:15;1.20;;;1.10;;
422;SDS011;198;48.752;9.180;2022-09-12T16:40:41;16.43;;;1.40;;
422;SDS011;198;48.752;9.180;2022-09-12T16:43:07;1.47;;;1.37;;
422;SDS011;198;48.752;9.180;2022-09-12T16:45:32;1.37;;;1.20;;
422;SDS011;198;48.752;9.180;2022-09-12T16:47:58;1.30;;;1.20;;
422;SDS011;198;48.752;9.180;2022-09-12T16:50:23;1.87;;;1.20;;
422;SDS011;198;48.752;9.180;2022-09-12T16:52:49;1.40;;;1.30;;
422;SDS011;198;48.752;9.180;2022-09-12T16:55:14;1.53;;;1.30;;
422;SDS011;198;48.752;9.180;2022-09-12T16:57:40;1.60;;;1.60;;
422;SDS011;198;48.752;9.180;2022-09-12T17:00:06;2.03;;;1.50;;
422;SDS011;198;48.752;9.180;2022-09-12T17:02:32;1.63;;;1.60;;
422;SDS011;198;48.752;9.180;2022-09-12T17:04:57;2.17;;;1.80;;
422;SDS011;198;48.752;9.180;2022-09-12T17:07:23;1.57;;;1.47;;
422;SDS011;198;48.752;9.180;2022-09-12T17:09:48;4.53;;;1.30;;
422;SDS011;198;48.752;9.180;2022-09-12T17:12:14;1.40;;;1.20;;
422;SDS011;198;48.752;9.180;2022-09-12T17:14:40;1.73;;;1.67;;
422;SDS011;198;48.752;9.180;2022-09-12T17:17:05;1.80;;;1.70;;
422;SDS011;198;48.752;9.180;2022-09-12T17:19:31;1.47;;;1.43;;
422;SDS011;198;48.752;9.180;2022-09-12T17:21:57;1.60;;;1.50;;
422;SDS011;198;48.752;9.180;2022-09-12T17:24:23;1.77;;;1.60;;
422;SDS011;198;48.752;9.180;2022-09-12T17:26:48;2.03;;;1.60;;
422;SDS011;198;48.752;9.180;2022-09-12T17:29:14;2.67;;;1.80;;
422;SDS011;198;48.752;9.180;2022-09-12T17:31:41;3.07;;;2.23;;
422;SDS011;198;48.752;9.180;2022-09-12T17:34:07;3.23;;;1.40;;
422;SDS011;198;48.752;9.180;2022-09-12T17:36:34;1.50;;;1.30;;
422;SDS011;198;48.752;9.180;2022-09-12T17:39:00;2.40;;;1.43;;
422;SDS011;198;48.752;9.180;2022-09-12T17:41:28;3.67;;;1.80;;
422;SDS011;198;48.752;9.180;2022-09-12T17:43:56;3.10;;;1.73;;
422;SDS011;198;48.752;9.180;2022-09-12T17:46:25;4.13;;;1.60;;
422;SDS011;198;48.752;9.180;2022-09-12T17:48:56;6.13;;;1.70;;
422;SDS011;198;48.752;9.180;2022-09-12T17:51:22;1.73;;;1.63;;
422;SDS011;198;48.752;9.180;2022-09-12T17:53:59;2.00;;;1.90;;
422;SDS011;198;48.752;9.180;2022-09-12T17:56:29;1.80;;;1.70;;
422;SDS011;198;48.752;9.180;2022-09-12T17:58:56;2.53;;;1.60;;
422;SDS011;198;48.752;9.180;2022-09-12T18:01:23;1.97;;;1.87;;
422;SDS011;198;48.752;9.180;2022-09-12T18:04:08;1.90;;;1.87;;
422;SDS011;198;48.752;9.180;2022-09-12T18:06:34;3.30;;;1.70;;
422;SDS011;198;48.752;9.180;2022-09-12T18:09:04;4.60;;;2.00;;
422;SDS011;198;48.752;9.180;2022-09-12T18:11:31;2.13;;;1.60;;
422;SDS011;198;48.752;9.180;2022-09-12T18:13:57;15.33;;;2.30;;
422;SDS011;198;48.752;9.180;2022-09-12T18:16:23;2.40;;;1.77;;
422;SDS011;198;48.752;9.180;2022-09-12T18:18:50;2.33;;;1.73;;
422;SDS011;198;48.752;9.180;2022-09-12T18:21:16;3.43;;;2.00;;
422;SDS011;198;48.752;9.180;2022-09-12T18:23:41;5.07;;;2.10;;
422;SDS011;198;48.752;9.180;2022-09-12T18:26:08;3.10;;;2.00;;
422;SDS011;198;48.752;9.180;2022-09-12T18:28:36;3.17;;;1.93;;
422;SDS011;198;48.752;9.180;2022-09-12T18:31:03;2.77;;;1.73;;